createdAt,value
2022-12-29T00:01:46.836Z,2.85
2022-12-29T00:04:15.564Z,1.00
2022-12-29T00:06:45.621Z,1.10
2022-12-29T00:09:13.459Z,2.70
2022-12-29T00:11:40.533Z,1.92
2022-12-29T00:14:28.423Z,2.05
2022-12-29T00:19:40.651Z,2.15
2022-12-29T00:22:25.882Z,1.60
2022-12-29T00:25:11.192Z,3.53
2022-12-29T00:27:56.900Z,0.75
2022-12-29T00:30:44.335Z,1.92
2022-12-29T00:33:36.245Z,1.52
2022-12-29T00:36:16.300Z,1.83
2022-12-29T00:39:08.018Z,0.60
2022-12-29T00:41:53.196Z,1.00
2022-12-29T00:44:19.675Z,1.05
2022-12-29T00:46:46.352Z,0.77
2022-12-29T00:49:32.736Z,1.38
2022-12-29T00:52:11.743Z,0.60
2022-12-29T00:54:40.289Z,1.45
2022-12-29T00:57:08.306Z,1.33
2022-12-29T00:59:39.146Z,0.88
2022-12-29T01:02:06.451Z,0.65
2022-12-29T01:04:33.419Z,0.77
2022-12-29T01:07:00.219Z,3.25
2022-12-29T01:09:45.978Z,1.45
2022-12-29T01:12:13.365Z,1.23
2022-12-29T01:14:41.485Z,2.85
2022-12-29T01:17:08.233Z,2.20
2022-12-29T01:19:35.073Z,0.85
2022-12-29T01:22:02.228Z,0.50
2022-12-29T01:24:28.950Z,1.13
2022-12-29T01:26:55.707Z,0.50
2022-12-29T01:29:22.855Z,1.02
2022-12-29T01:31:50.847Z,0.70
2022-12-29T01:34:18.370Z,0.55
2022-12-29T01:36:44.916Z,1.70
2022-12-29T01:39:12.602Z,0.60
2022-12-29T01:41:39.452Z,0.40
2022-12-29T01:44:43.641Z,0.55
2022-12-29T01:47:10.337Z,0.50
2022-12-29T01:49:37.301Z,1.00
2022-12-29T01:52:08.297Z,1.55
2022-12-29T01:54:48.431Z,0.70
2022-12-29T01:57:22.113Z,0.35
2022-12-29T01:59:54.915Z,0.43
2022-12-29T02:02:21.938Z,1.92
2022-12-29T02:04:49.192Z,1.80
2022-12-29T02:07:23.849Z,0.50
2022-12-29T02:09:51.746Z,1.73
2022-12-29T02:12:20.162Z,0.60
2022-12-29T02:14:48.394Z,1.05
2022-12-29T02:17:51.153Z,1.13
2022-12-29T02:20:45.296Z,0.63
2022-12-29T02:23:59.568Z,0.77
2022-12-29T02:27:00.619Z,1.45
2022-12-29T02:29:56.071Z,0.70
2022-12-29T02:32:43.547Z,1.00
2022-12-29T02:35:32.217Z,1.85
2022-12-29T02:38:20.399Z,0.70
2022-12-29T02:41:09.424Z,1.63
2022-12-29T02:43:48.836Z,3.25
2022-12-29T02:46:37.196Z,1.58
2022-12-29T02:49:22.583Z,1.90
2022-12-29T02:52:30.734Z,1.20
2022-12-29T02:54:59.349Z,1.77
2022-12-29T02:59:55.225Z,1.80
2022-12-29T03:02:46.625Z,2.38
2022-12-29T03:05:35.163Z,2.88
2022-12-29T03:08:18.291Z,1.45
2022-12-29T03:10:52.331Z,1.02
2022-12-29T03:13:48.578Z,1.05
2022-12-29T03:16:27.804Z,0.88
2022-12-29T03:19:13.211Z,0.93
2022-12-29T03:22:05.746Z,0.70
2022-12-29T03:24:42.792Z,3.92
2022-12-29T03:27:14.810Z,1.05
2022-12-29T03:29:47.060Z,2.15
2022-12-29T03:32:17.352Z,2.33
2022-12-29T03:34:46.237Z,1.20
2022-12-29T03:37:17.852Z,0.80
2022-12-29T03:39:45.900Z,3.38
2022-12-29T03:42:17.162Z,1.05
2022-12-29T03:44:46.316Z,2.58
2022-12-29T03:47:15.863Z,1.48
2022-12-29T03:49:44.326Z,1.30
2022-12-29T03:52:11.788Z,2.30
2022-12-29T03:54:42.892Z,1.00
2022-12-29T03:57:11.755Z,1.15
2022-12-29T03:59:55.705Z,1.67
2022-12-29T04:02:22.555Z,0.63
2022-12-29T04:04:49.279Z,1.23
2022-12-29T04:07:16.008Z,1.65
2022-12-29T04:09:43.269Z,1.08
2022-12-29T04:12:15.527Z,1.70
2022-12-29T04:14:42.102Z,0.98
2022-12-29T04:17:08.969Z,0.98
2022-12-29T04:19:35.623Z,0.60
2022-12-29T04:22:02.113Z,0.60
2022-12-29T04:24:29.407Z,0.93
2022-12-29T04:26:55.849Z,1.67
2022-12-29T04:29:31.840Z,1.77
2022-12-29T04:32:08.529Z,1.58
2022-12-29T04:34:39.641Z,1.08
2022-12-29T04:37:06.285Z,0.88
2022-12-29T04:39:35.114Z,3.30
2022-12-29T04:42:03.137Z,1.65
2022-12-29T04:44:30.015Z,1.05
2022-12-29T04:47:11.661Z,1.20
2022-12-29T04:50:04.949Z,1.77
2022-12-29T04:52:50.966Z,2.53
2022-12-29T04:55:17.531Z,1.13
2022-12-29T04:57:45.025Z,0.90
2022-12-29T05:00:15.786Z,1.80
2022-12-29T05:02:42.627Z,1.42
2022-12-29T05:05:09.693Z,1.58
2022-12-29T05:07:40.990Z,2.45
2022-12-29T05:10:08.403Z,1.02
2022-12-29T05:12:37.553Z,1.67
2022-12-29T05:15:06.131Z,1.67
2022-12-29T05:19:59.271Z,1.58
2022-12-29T05:22:26.500Z,2.17
2022-12-29T05:27:21.078Z,2.38
2022-12-29T05:29:54.062Z,1.70
2022-12-29T05:32:21.004Z,1.38
2022-12-29T05:34:47.586Z,3.50
2022-12-29T05:37:14.683Z,1.20
2022-12-29T05:39:42.112Z,1.30
2022-12-29T05:42:09.202Z,0.55
2022-12-29T05:44:46.887Z,2.30
2022-12-29T05:47:36.175Z,1.33
2022-12-29T05:50:25.673Z,0.70
2022-12-29T05:53:11.309Z,1.90
2022-12-29T05:55:43.465Z,1.85
2022-12-29T05:58:13.285Z,1.25
2022-12-29T06:00:41.364Z,1.38
2022-12-29T06:03:09.770Z,1.75
2022-12-29T06:05:36.483Z,0.82
2022-12-29T06:08:03.281Z,0.60
2022-12-29T06:10:30.151Z,3.13
2022-12-29T06:15:36.149Z,1.98
2022-12-29T06:18:05.588Z,1.52
2022-12-29T06:20:32.275Z,1.25
2022-12-29T06:22:58.787Z,1.20
2022-12-29T06:25:25.906Z,1.25
2022-12-29T06:27:52.697Z,1.33
2022-12-29T06:30:20.126Z,3.47
2022-12-29T06:32:47.532Z,2.17
2022-12-29T06:35:14.934Z,2.55
2022-12-29T06:37:47.470Z,1.38
2022-12-29T06:40:14.143Z,0.95
2022-12-29T06:42:59.127Z,1.13
2022-12-29T06:45:58.161Z,2.05
2022-12-29T06:48:24.593Z,2.05
2022-12-29T06:50:51.335Z,1.35
2022-12-29T06:53:17.757Z,1.30
2022-12-29T06:55:44.432Z,2.05
2022-12-29T06:58:10.983Z,2.47
2022-12-29T07:00:37.580Z,3.50
2022-12-29T07:03:04.106Z,1.65
2022-12-29T07:05:32.597Z,1.33
2022-12-29T07:07:59.679Z,2.60
2022-12-29T07:10:26.226Z,3.20
2022-12-29T07:12:52.658Z,1.05
2022-12-29T07:15:19.228Z,1.27
2022-12-29T07:17:45.828Z,3.63
2022-12-29T07:20:12.416Z,2.05
2022-12-29T07:22:39.517Z,1.17
2022-12-29T07:25:06.134Z,1.75
2022-12-29T07:27:32.696Z,1.33
2022-12-29T07:29:59.276Z,1.52
2022-12-29T07:32:25.662Z,4.78
2022-12-29T07:34:52.890Z,1.75
2022-12-29T07:37:19.675Z,2.28
2022-12-29T07:39:46.065Z,2.75
2022-12-29T07:42:12.461Z,1.88
2022-12-29T07:44:42.825Z,2.58
2022-12-29T07:47:28.101Z,2.97
2022-12-29T07:49:54.643Z,3.92
2022-12-29T07:52:21.098Z,2.58
2022-12-29T07:54:47.592Z,5.50
2022-12-29T07:57:14.048Z,5.10
2022-12-29T07:59:40.510Z,3.47
2022-12-29T08:02:07.312Z,2.15
2022-12-29T08:04:34.508Z,5.55
2022-12-29T08:07:01.041Z,3.72
2022-12-29T08:09:27.590Z,3.60
2022-12-29T08:11:54.650Z,3.80
2022-12-29T08:14:21.286Z,4.43
2022-12-29T08:16:47.763Z,2.72
2022-12-29T08:19:14.556Z,4.63
2022-12-29T08:21:41.611Z,3.35
2022-12-29T08:24:09.509Z,2.85
2022-12-29T08:26:36.334Z,5.15
2022-12-29T08:29:02.748Z,5.35
2022-12-29T08:31:29.286Z,3.45
2022-12-29T08:33:55.733Z,4.50
2022-12-29T08:36:22.167Z,2.22
2022-12-29T08:38:48.580Z,9.68
2022-12-29T08:41:15.170Z,4.65
2022-12-29T08:43:41.742Z,3.65
2022-12-29T08:46:08.255Z,2.30
2022-12-29T08:48:34.662Z,2.20
2022-12-29T08:51:01.448Z,5.30
2022-12-29T08:53:28.143Z,6.78
2022-12-29T08:56:04.621Z,4.88
2022-12-29T08:58:36.714Z,2.88
2022-12-29T09:01:03.767Z,3.42
2022-12-29T09:03:54.992Z,3.63
2022-12-29T09:06:18.255Z,4.20
2022-12-29T09:08:45.416Z,4.70
2022-12-29T09:11:19.197Z,5.63
2022-12-29T09:13:46.341Z,5.00
2022-12-29T09:16:13.516Z,3.80
2022-12-29T09:18:41.010Z,4.75
2022-12-29T09:21:08.468Z,3.17
2022-12-29T09:23:35.683Z,6.18
2022-12-29T09:26:02.893Z,6.93
2022-12-29T09:28:30.132Z,3.53
2022-12-29T09:30:57.576Z,5.32
2022-12-29T09:33:24.702Z,5.03
2022-12-29T09:35:56.920Z,4.43
2022-12-29T09:38:24.611Z,3.95
2022-12-29T09:40:56.747Z,5.72
2022-12-29T09:43:32.210Z,5.78
2022-12-29T09:46:01.712Z,4.32
2022-12-29T09:48:35.846Z,4.57
2022-12-29T09:51:09.937Z,6.22
2022-12-29T09:53:45.429Z,4.30
2022-12-29T09:56:22.007Z,5.30
2022-12-29T09:59:16.720Z,3.72
2022-12-29T10:02:13.711Z,5.03
2022-12-29T10:04:42.816Z,5.00
2022-12-29T10:07:30.411Z,5.43
2022-12-29T10:10:15.726Z,3.03
2022-12-29T10:12:59.389Z,5.22
2022-12-29T10:15:35.741Z,4.53
2022-12-29T10:18:19.665Z,4.50
2022-12-29T10:20:56.032Z,6.35
2022-12-29T10:23:45.838Z,3.78
2022-12-29T10:26:19.502Z,4.28
2022-12-29T10:28:52.388Z,4.22
2022-12-29T10:31:29.254Z,5.10
2022-12-29T10:34:00.546Z,6.68
2022-12-29T10:36:36.504Z,9.32
2022-12-29T10:39:29.564Z,5.63
2022-12-29T10:42:15.092Z,6.75
2022-12-29T10:44:41.984Z,4.38
2022-12-29T10:47:16.053Z,5.70
2022-12-29T10:49:46.168Z,5.43
2022-12-29T10:52:14.540Z,7.13
2022-12-29T10:54:55.698Z,6.47
2022-12-29T10:57:40.875Z,7.78
2022-12-29T11:00:17.536Z,6.47
2022-12-29T11:02:56.535Z,6.50
2022-12-29T11:05:46.159Z,2.38
2022-12-29T11:08:18.177Z,4.55
2022-12-29T11:10:46.488Z,3.50
2022-12-29T11:13:17.361Z,7.25
2022-12-29T11:15:49.485Z,3.78
2022-12-29T11:18:26.535Z,4.40
2022-12-29T11:21:00.273Z,8.43
2022-12-29T11:23:29.831Z,4.28
2022-12-29T11:26:07.441Z,5.90
2022-12-29T11:28:34.272Z,6.78
2022-12-29T11:31:03.419Z,6.90
2022-12-29T11:33:31.223Z,5.10
2022-12-29T11:36:00.358Z,5.93
2022-12-29T11:38:34.916Z,6.72
2022-12-29T11:41:02.508Z,4.22
2022-12-29T11:43:35.750Z,5.72
2022-12-29T11:46:06.346Z,3.25
2022-12-29T11:48:39.739Z,8.75
2022-12-29T11:51:07.795Z,8.55
2022-12-29T11:53:44.046Z,5.72
2022-12-29T11:56:16.025Z,5.35
2022-12-29T11:58:43.220Z,5.05
2022-12-29T12:01:51.417Z,5.75
2022-12-29T12:04:22.349Z,7.13
2022-12-29T12:07:09.772Z,8.57
2022-12-29T12:09:52.682Z,8.90
2022-12-29T12:12:36.295Z,5.78
2022-12-29T12:15:04.186Z,9.70
2022-12-29T12:18:18.294Z,7.20
2022-12-29T12:21:06.595Z,3.97
2022-12-29T12:23:53.090Z,4.03
2022-12-29T12:26:22.769Z,4.20
2022-12-29T12:29:02.034Z,5.00
2022-12-29T12:31:43.763Z,7.13
2022-12-29T12:34:18.788Z,7.32
2022-12-29T12:39:26.014Z,8.82
2022-12-29T12:42:01.496Z,7.00
2022-12-29T12:44:48.753Z,8.20
2022-12-29T12:47:37.366Z,6.03
2022-12-29T12:50:09.604Z,6.20
2022-12-29T12:52:54.707Z,5.75
2022-12-29T12:55:30.449Z,5.30
2022-12-29T12:58:17.444Z,7.13
2022-12-29T13:00:59.076Z,5.30
2022-12-29T13:03:46.352Z,7.07
2022-12-29T13:07:02.586Z,6.90
2022-12-29T13:09:55.770Z,4.57
2022-12-29T13:12:39.883Z,4.55
2022-12-29T13:15:43.324Z,4.75
2022-12-29T13:18:20.250Z,5.97
2022-12-29T13:21:16.944Z,5.45
2022-12-29T13:23:59.977Z,3.72
2022-12-29T13:26:38.743Z,5.97
2022-12-29T13:29:14.355Z,5.80
2022-12-29T13:31:49.951Z,7.15
2022-12-29T13:34:28.799Z,7.35
2022-12-29T13:37:03.609Z,7.32
2022-12-29T13:39:38.276Z,8.07
2022-12-29T13:42:06.404Z,6.05
2022-12-29T13:44:41.279Z,10.75
2022-12-29T13:47:23.769Z,4.55
2022-12-29T13:49:51.805Z,6.15
2022-12-29T13:52:37.887Z,9.43
2022-12-29T13:55:28.656Z,31.35
2022-12-29T13:58:05.924Z,5.57
2022-12-29T14:00:44.913Z,4.70
2022-12-29T14:03:36.096Z,7.97
2022-12-29T14:06:13.297Z,5.30
2022-12-29T14:08:40.264Z,6.28
2022-12-29T14:11:11.973Z,4.53
2022-12-29T14:13:44.425Z,4.97
2022-12-29T14:16:27.223Z,6.03
2022-12-29T14:18:55.468Z,5.63
2022-12-29T14:21:29.513Z,6.05
2022-12-29T14:24:22.091Z,4.97
2022-12-29T14:26:48.661Z,4.70
2022-12-29T14:29:40.578Z,3.80
2022-12-29T14:32:25.163Z,5.28
2022-12-29T14:34:59.778Z,7.07
2022-12-29T14:37:31.416Z,4.22
2022-12-29T14:40:23.927Z,5.07
2022-12-29T14:42:53.490Z,7.68
2022-12-29T14:45:20.093Z,7.57
2022-12-29T14:47:49.355Z,3.90
2022-12-29T14:50:17.805Z,6.40
2022-12-29T14:52:49.313Z,6.78
2022-12-29T14:55:18.757Z,4.93
2022-12-29T14:57:50.347Z,6.10
2022-12-29T15:00:27.462Z,5.10
2022-12-29T15:03:18.470Z,6.75
2022-12-29T15:05:57.343Z,9.98
2022-12-29T15:08:31.296Z,9.27
2022-12-29T15:11:22.229Z,6.07
2022-12-29T15:13:50.283Z,3.05
2022-12-29T15:16:24.809Z,5.15
2022-12-29T15:18:51.531Z,5.72
2022-12-29T15:21:21.281Z,8.48
2022-12-29T15:23:48.856Z,6.82
2022-12-29T15:26:22.082Z,4.50
2022-12-29T15:28:53.307Z,5.32
2022-12-29T15:31:30.035Z,6.18
2022-12-29T15:34:13.483Z,6.63
2022-12-29T15:36:42.542Z,8.02
2022-12-29T15:39:35.738Z,6.10
2022-12-29T15:42:21.106Z,5.07
2022-12-29T15:44:47.987Z,3.38
2022-12-29T15:47:21.563Z,3.97
2022-12-29T15:49:54.758Z,5.25
2022-12-29T15:52:23.975Z,4.55
2022-12-29T15:54:53.652Z,6.10
2022-12-29T15:57:37.805Z,6.82
2022-12-29T16:00:21.977Z,7.85
2022-12-29T16:02:49.834Z,5.28
2022-12-29T16:05:18.949Z,5.18
2022-12-29T16:08:00.419Z,9.85
2022-12-29T16:13:23.190Z,3.75
2022-12-29T16:15:52.979Z,6.53
2022-12-29T16:18:33.976Z,6.43
2022-12-29T16:21:01.837Z,7.60
2022-12-29T16:23:31.573Z,7.38
2022-12-29T16:25:58.771Z,4.63
2022-12-29T16:28:43.685Z,6.40
2022-12-29T16:31:25.116Z,5.32
2022-12-29T16:36:32.462Z,9.65
2022-12-29T16:39:18.045Z,7.60
2022-12-29T16:41:44.783Z,9.02
2022-12-29T16:44:24.298Z,8.70
2022-12-29T16:47:12.737Z,9.15
2022-12-29T16:49:43.066Z,6.45
2022-12-29T16:52:39.181Z,7.30
2022-12-29T16:55:06.650Z,7.80
2022-12-29T16:57:37.332Z,6.22
2022-12-29T17:00:08.731Z,6.50
2022-12-29T17:02:45.657Z,8.63
2022-12-29T17:05:17.787Z,7.75
2022-12-29T17:07:45.459Z,7.07
2022-12-29T17:10:16.707Z,8.90
2022-12-29T17:12:46.777Z,6.72
2022-12-29T17:15:22.514Z,17.92
2022-12-29T17:17:52.252Z,6.30
2022-12-29T17:20:24.471Z,9.68
2022-12-29T17:22:53.976Z,9.43
2022-12-29T17:25:23.924Z,9.18
2022-12-29T17:28:01.432Z,10.23
2022-12-29T17:30:33.551Z,12.27
2022-12-29T17:33:14.882Z,8.02
2022-12-29T17:35:41.989Z,6.20
2022-12-29T17:38:23.915Z,3.60
2022-12-29T17:40:51.056Z,3.15
2022-12-29T17:43:17.981Z,5.43
2022-12-29T17:45:47.449Z,3.72
2022-12-29T17:48:15.840Z,4.20
2022-12-29T17:50:43.380Z,3.05
2022-12-29T17:53:15.747Z,2.50
2022-12-29T17:55:43.122Z,2.13
2022-12-29T17:58:21.767Z,2.83
2022-12-29T18:00:50.794Z,2.55
2022-12-29T18:03:20.971Z,3.85
2022-12-29T18:05:49.755Z,5.22
2022-12-29T18:08:16.387Z,5.60
2022-12-29T18:10:43.242Z,6.30
2022-12-29T18:13:22.242Z,4.40
2022-12-29T18:15:48.791Z,4.60
2022-12-29T18:18:21.068Z,4.03
2022-12-29T18:20:49.606Z,5.00
2022-12-29T18:23:23.625Z,5.70
2022-12-29T18:26:01.184Z,5.72
2022-12-29T18:28:28.485Z,8.13
2022-12-29T18:30:57.349Z,5.35
2022-12-29T18:33:26.498Z,6.60
2022-12-29T18:36:02.609Z,6.80
2022-12-29T18:38:29.890Z,4.38
2022-12-29T18:40:58.035Z,7.03
2022-12-29T18:43:24.845Z,8.73
2022-12-29T18:45:51.410Z,7.68
2022-12-29T18:48:19.763Z,10.30
2022-12-29T18:50:49.281Z,9.90
2022-12-29T18:53:18.168Z,8.25
2022-12-29T18:55:44.762Z,7.90
2022-12-29T18:58:11.401Z,9.10
2022-12-29T19:00:38.537Z,9.10
2022-12-29T19:03:06.220Z,12.15
2022-12-29T19:05:40.923Z,7.75
2022-12-29T19:08:08.896Z,9.52
2022-12-29T19:10:36.558Z,11.25
2022-12-29T19:13:03.398Z,9.38
2022-12-29T19:15:37.998Z,8.65
2022-12-29T19:18:42.497Z,14.57
2022-12-29T19:20:56.725Z,8.82
2022-12-29T19:23:25.316Z,9.25
2022-12-29T19:25:53.583Z,9.55
2022-12-29T19:28:24.410Z,8.60
2022-12-29T19:30:53.108Z,7.00
2022-12-29T19:38:15.269Z,7.10
2022-12-29T19:40:50.997Z,16.48
2022-12-29T19:43:18.158Z,7.78
2022-12-29T19:45:45.803Z,6.10
2022-12-29T19:48:16.322Z,11.73
2022-12-29T19:50:43.621Z,9.13
2022-12-29T19:53:11.891Z,9.68
2022-12-29T19:55:43.652Z,7.75
2022-12-29T19:58:10.295Z,11.50
2022-12-29T20:00:42.640Z,7.20
2022-12-29T20:03:10.551Z,7.20
2022-12-29T20:05:37.812Z,10.70
2022-12-29T20:08:04.571Z,13.30
2022-12-29T20:10:31.327Z,11.27
2022-12-29T20:12:57.809Z,10.38
2022-12-29T20:15:24.404Z,12.52
2022-12-29T20:20:37.458Z,9.27
2022-12-29T20:23:04.016Z,9.75
2022-12-29T20:25:47.306Z,7.05
2022-12-29T20:28:16.083Z,7.72
2022-12-29T20:30:43.659Z,5.70
2022-12-29T20:33:10.333Z,8.05
2022-12-29T20:35:37.631Z,8.15
2022-12-29T20:38:05.268Z,7.20
2022-12-29T20:40:32.325Z,7.28
2022-12-29T20:42:58.951Z,9.93
2022-12-29T20:45:25.775Z,7.70
2022-12-29T20:47:52.331Z,6.97
2022-12-29T20:50:18.930Z,10.68
2022-12-29T20:52:46.746Z,10.07
2022-12-29T20:55:13.950Z,6.03
2022-12-29T20:58:21.452Z,12.10
2022-12-29T21:00:30.195Z,11.23
2022-12-29T21:02:58.294Z,9.23
2022-12-29T21:05:26.381Z,5.38
2022-12-29T21:07:54.617Z,8.32
2022-12-29T21:10:21.624Z,6.95
2022-12-29T21:12:48.494Z,9.07
2022-12-29T21:15:15.471Z,12.27
2022-12-29T21:17:45.209Z,7.15
2022-12-29T21:20:19.605Z,7.40
2022-12-29T21:22:47.933Z,9.18
2022-12-29T21:25:14.820Z,14.43
2022-12-29T21:27:43.983Z,11.45
2022-12-29T21:30:11.470Z,9.98
2022-12-29T21:32:38.013Z,11.52
2022-12-29T21:35:05.074Z,8.23
2022-12-29T21:37:31.614Z,8.80
2022-12-29T21:39:58.473Z,11.40
2022-12-29T21:42:27.395Z,8.82
2022-12-29T21:45:18.308Z,7.70
2022-12-29T21:48:05.530Z,6.93
2022-12-29T21:50:32.021Z,12.45
2022-12-29T21:52:58.800Z,9.88
2022-12-29T21:55:25.259Z,9.07
2022-12-29T21:58:10.273Z,12.02
2022-12-29T22:00:55.655Z,15.25
2022-12-29T22:03:41.884Z,13.00
2022-12-29T22:06:30.046Z,39.63
2022-12-29T22:09:14.971Z,33.80
2022-12-29T22:12:00.107Z,16.40
2022-12-29T22:14:27.160Z,13.90
2022-12-29T22:16:53.870Z,11.15
2022-12-29T22:19:20.371Z,11.63
2022-12-29T22:21:47.307Z,9.38
2022-12-29T22:24:13.715Z,13.48
2022-12-29T22:26:40.223Z,9.32
2022-12-29T22:29:07.322Z,15.57
2022-12-29T22:31:34.090Z,10.57
2022-12-29T22:34:03.092Z,12.60
2022-12-29T22:36:30.911Z,13.25
2022-12-29T22:38:57.586Z,10.63
2022-12-29T22:41:24.908Z,7.75
2022-12-29T22:43:51.827Z,8.88
2022-12-29T22:46:18.528Z,13.50
2022-12-29T22:48:45.239Z,13.10
2022-12-29T22:51:12.174Z,9.40
2022-12-29T22:53:39.450Z,11.60
2022-12-29T22:56:11.589Z,12.85
2022-12-29T22:58:41.067Z,14.27
2022-12-29T23:01:09.179Z,9.30
2022-12-29T23:03:35.918Z,10.73
2022-12-29T23:06:05.296Z,13.57
2022-12-29T23:08:34.583Z,10.75
2022-12-29T23:11:01.864Z,8.52
2022-12-29T23:13:28.912Z,9.63
2022-12-29T23:15:55.802Z,8.52
2022-12-29T23:18:22.282Z,8.95
2022-12-29T23:20:49.748Z,15.85
2022-12-29T23:23:48.439Z,9.07
2022-12-29T23:26:17.397Z,10.93
2022-12-29T23:28:44.381Z,7.60
2022-12-29T23:31:10.999Z,10.77
2022-12-29T23:33:37.636Z,9.30
2022-12-29T23:36:05.413Z,11.35
2022-12-29T23:38:31.929Z,12.63
2022-12-29T23:40:58.360Z,10.43
2022-12-29T23:43:25.397Z,10.68
2022-12-29T23:45:52.169Z,7.18
2022-12-29T23:48:19.846Z,14.65
2022-12-29T23:50:46.890Z,8.98
2022-12-29T23:53:13.480Z,13.43
2022-12-29T23:55:44.117Z,12.13
2022-12-29T23:58:11.351Z,10.57
